Flight Track Log - Related Links

Times and Time Zones

All times are in EDT time to prevent confusion due to time zone crossing. See the CPZ5805 flight status page for this flight to view local times or setup timezone preferences in your user account.

Time Position Orientation Groundspeed Altitude Reporting Facility
EDT Latitude Longitude Course Direction KTS MPH feet Rate Location/Type
Sun 11:53:18 AM 44.8544 -93.2239 117° Southeast 135 155 2,300  Level FAA TRACON SMA TRACON (SMA)
Sun 11:53:37 AM 44.8472 -93.2033 116° Southeast 147 169 2,600 1,500 Climbing FAA TRACON SMA TRACON (SMA)
Sun 11:53:58 AM 44.8419 -93.1833 110° East 171 197 3,300 1,902 Climbing FAA TRACON SMA TRACON (SMA)
Sun 11:54:18 AM 44.8358 -93.1614 111° Southeast 190 219 3,900 1,800 Climbing FAA TRACON SMA TRACON (SMA)
Sun 11:54:38 AM 44.8272 -93.1300 111° Southeast 220 253 4,500 1,950 Climbing FAA TRACON SMA TRACON (SMA)
Sun 11:54:58 AM 44.8189 -93.1008 112° Southeast 250 288 5,200 2,250 Climbing FAA TRACON SMA TRACON (SMA)
Sun 11:55:00 AM 44.7555 -92.7410 111° Southeast  Level Estimated
Sun 11:55:18 AM 44.8122 -93.0683 106° East 276 318 6,000  Level FAA TRACON SMA TRACON (SMA)
Sun 11:55:38 AM 44.7992 -93.0300 116° Southeast 286 329 7,600 4,050 Climbing FAA TRACON SMA TRACON (SMA)
Sun 11:55:58 AM 44.7892 -92.9992 115° Southeast 282 325 8,700 3,077 Climbing FAA TRACON SMA TRACON (SMA)
Sun 11:56:00 AM 44.7129 -92.5812 113° Southeast  Level Estimated
Sun 11:56:17 AM 44.7803 -92.9669 111° Southeast 283 326 9,600  Level FAA TRACON SMA TRACON (SMA)
Sun 11:56:38 AM 44.7681 -92.9250 112° Southeast 298 343 10,500 2,143 Climbing FAA TRACON SMA TRACON (SMA)
Sun 11:56:59 AM 44.7575 -92.8897 113° Southeast 313 360 11,100 1,500 Climbing FAA TRACON SMA TRACON (SMA)
Sun 11:57:00 AM 44.6700 -92.4216 125° Southeast  Level Estimated
Sun 11:57:18 AM 44.7469 -92.8519 111° Southeast 332 382 11,500  Level FAA TRACON SMA TRACON (SMA)
Sun 11:57:38 AM 44.7328 -92.8028 112° Southeast 351 404 12,300 2,400 Climbing FAA TRACON SMA TRACON (SMA)
Sun 11:57:58 AM 44.7214 -92.7628 112° Southeast 358 412 13,100 2,400 Climbing FAA TRACON SMA TRACON (SMA)
Sun 11:58:00 AM 44.6270 -92.2623 117° Southeast  Level Estimated
Sun 11:58:18 AM 44.7100 -92.7219 111° Southeast 363 418 13,900  Level FAA TRACON SMA TRACON (SMA)
Sun 11:58:38 AM 44.6956 -92.6706 112° Southeast 367 422 14,900 2,400 Climbing FAA TRACON SMA TRACON (SMA)
Sun 11:59:18 AM 44.6686 -92.5886 115° Southeast 376 433 16,300 2,200 Climbing FAA TRACON SMA TRACON (SMA)
Sun 11:59:38 AM 44.6503 -92.5381 117° Southeast 379 436 17,100 2,250 Climbing FAA TRACON SMA TRACON (SMA)
Sun 11:59:58 AM 44.6350 -92.4967 117° Southeast 385 443 17,800 1,610 Climbing FAA TRACON SMA TRACON (SMA)
Sun 12:00:19 PM 44.6194 -92.4547 118° Southeast 390 449 18,200 1,800 Climbing FAA TRACON SMA TRACON (SMA)
Sun 12:00:38 PM 44.6006 -92.4011 116° Southeast 398 458 19,000 2,154 Climbing FAA TRACON SMA TRACON (SMA)
Sun 12:00:58 PM 44.5842 -92.3583 118° Southeast 403 464 19,600 1,800 Climbing FAA TRACON SMA TRACON (SMA)
Sun 12:01:18 PM 44.5678 -92.3150 118° Southeast 407 468 20,200 2,100 Climbing FAA TRACON SMA TRACON (SMA)
Sun 12:01:38 PM 44.5486 -92.2600 116° Southeast 410 472 21,000 2,100 Climbing FAA TRACON SMA TRACON (SMA)
Sun 12:01:58 PM 44.5317 -92.2161 118° Southeast 413 475 21,600 1,800 Climbing FAA TRACON SMA TRACON (SMA)
Sun 12:02:18 PM 44.5158 -92.1714 116° Southeast 415 478 22,200 1,950 Climbing FAA TRACON SMA TRACON (SMA)
Sun 12:02:38 PM 44.4947 -92.1164 118° Southeast 418 481 22,900 1,800 Climbing FAA TRACON SMA TRACON (SMA)
Sun 12:02:58 PM 44.4783 -92.0706 117° Southeast 423 487 23,400 1,350 Climbing FAA TRACON SMA TRACON (SMA)
Sun 12:03:18 PM 44.4619 -92.0244 116° Southeast 427 491 23,800 1,350 Climbing FAA TRACON SMA TRACON (SMA)
Sun 12:03:38 PM 44.4439 -91.9792 119° Southeast 432 497 24,300 1,418 Climbing FAA TRACON SMA TRACON (SMA)
Sun 12:05:08 PM 44.3556 -91.7733 121° Southeast 440 506 26,400 1,263 Climbing Minneapolis Center
Sun 12:06:10 PM 44.2953 -91.6200 119° Southeast 448 516 27,500 1,024 Climbing Minneapolis Center
Sun 12:07:11 PM 44.2336 -91.4633 119° Southeast 458 527 28,500 1,082 Climbing Minneapolis Center
Sun 12:08:12 PM 44.1672 -91.2933 119° Southeast 469 540 29,700 1,171 Climbing Minneapolis Center
Sun 12:09:14 PM 44.1036 -91.1333 119° Southeast 473 544 30,900 634 Climbing Minneapolis Center
Sun 12:10:15 PM 44.0403 -90.9731 119° Southeast 474 545 31,000 49 Climbing Minneapolis Center
Sun 12:11:16 PM 43.9647 -90.7803 119° Southeast 475 547 31,000  Level Minneapolis Center
Sun 12:12:29 PM 43.9000 -90.6206 119° Southeast 476 548 31,000  Level Minneapolis Center
Sun 12:13:31 PM 43.8267 -90.4367 119° Southeast 477 549 31,000  Level Minneapolis Center
Sun 12:14:32 PM 43.7597 -90.2700 119° Southeast 474 545 31,000  Level Minneapolis Center
Sun 12:15:34 PM 43.7142 -90.1072 111° Southeast 477 549 31,000  Level Minneapolis Center
Sun 12:16:35 PM 43.6644 -89.9042 109° East 478 550 31,000  Level Minneapolis Center
Sun 12:17:36 PM 43.6208 -89.7311 109° East 477 549 31,000  Level Minneapolis Center
Sun 12:18:37 PM 43.5767 -89.5575 109° East 479 551 31,000  Level Minneapolis Center
Sun 12:19:23 PM 43.5456 -89.4422 110° East 480 552 31,000  Level Chicago Center
Sun 12:20:25 PM 43.5003 -89.2692 110° East 482 555 31,000  Level Chicago Center
Sun 12:21:26 PM 43.4478 -89.0683 110° East 479 551 31,000  Level Chicago Center
Sun 12:22:28 PM 43.4031 -88.8983 110° East 476 548 31,000  Level Chicago Center
Sun 12:23:30 PM 43.3583 -88.7294 110° East 474 545 31,000  Level Chicago Center
Sun 12:24:32 PM 43.3131 -88.5642 111° Southeast 473 544 31,000  Level Chicago Center
Sun 12:25:33 PM 43.2617 -88.3694 110° East 474 545 31,000  Level Chicago Center
Sun 12:26:35 PM 43.2169 -88.2028 110° East 472 543 31,000  Level Chicago Center
Sun 12:27:37 PM 43.1711 -88.0361 111° Southeast 468 539 31,000  Level Chicago Center
Sun 12:28:39 PM 43.1253 -87.8697 111° Southeast 469 540 31,000  Level Chicago Center
Sun 12:29:41 PM 43.0783 -87.7033 111° Southeast 469 540 31,000  Level Chicago Center
Sun 12:30:43 PM 43.0239 -87.5094 111° Southeast 469 540 31,000  Level Chicago Center
Sun 12:31:45 PM 42.9806 -87.3556 111° Southeast 468 539 31,000  Level Chicago Center
Sun 12:32:46 PM 42.9342 -87.1875 111° Southeast 472 543 31,000  Level Chicago Center
Sun 12:33:48 PM 42.8875 -87.0214 111° Southeast 473 544 31,000  Level Chicago Center
Sun 12:34:50 PM 42.8394 -86.8556 112° Southeast 473 544 31,000  Level Chicago Center
Sun 12:35:52 PM 42.7819 -86.6578 112° Southeast 470 541 31,000  Level Chicago Center
Sun 12:36:54 PM 42.7336 -86.4950 112° Southeast 468 539 31,000  Level Chicago Center
Sun 12:37:56 PM 42.6864 -86.3319 111° Southeast 469 540 31,000  Level Chicago Center
Sun 12:38:58 PM 42.6378 -86.1683 112° Southeast 471 542 31,000  Level Chicago Center
Sun 12:40:00 PM 42.5889 -86.0058 112° Southeast 472 543 31,000  Level Chicago Center
Sun 12:41:02 PM 42.5314 -85.8114 112° Southeast 468 539 31,000  Level Chicago Center
Sun 12:42:04 PM 42.4825 -85.6508 112° Southeast 465 535 31,000  Level Chicago Center
Sun 12:43:06 PM 42.4344 -85.4875 112° Southeast 469 540 31,000  Level Chicago Center
Sun 12:44:08 PM 42.3850 -85.3247 112° Southeast 470 541 31,000  Level Chicago Center
Sun 12:44:40 PM 42.3578 -85.2369 113° Southeast 469 540 31,000  Level Cleveland Center
Sun 12:45:40 PM 42.3078 -85.0733 112° Southeast 464 534 31,000  Level Cleveland Center
Sun 12:46:40 PM 42.2578 -84.9097 112° Southeast 464 534 31,000  Level Cleveland Center
Sun 12:47:40 PM 42.2056 -84.7464 113° Southeast 464 534 31,000  Level Cleveland Center
Sun 12:48:40 PM 42.1472 -84.5689 114° Southeast 463 533 31,000  Level Cleveland Center
Sun 12:49:40 PM 42.1061 -84.4233 111° Southeast 468 539 31,000  Level Cleveland Center
Sun 12:50:40 PM 42.0453 -84.2464 115° Southeast 468 539 31,000  Level Cleveland Center
Sun 12:51:40 PM 41.9919 -84.0839 114° Southeast 468 539 31,000  Level Cleveland Center
Sun 12:52:40 PM 41.9406 -83.9219 113° Southeast 468 539 31,000  Level Cleveland Center
Sun 12:53:40 PM 41.8889 -83.7603 113° Southeast 463 533 31,000  Level Cleveland Center
Sun 12:54:40 PM 41.8369 -83.6017 114° Southeast 468 539 31,000  Level Cleveland Center
Sun 12:55:40 PM 41.7847 -83.4403 113° Southeast 468 539 31,000  Level Cleveland Center
Sun 12:56:40 PM 41.7322 -83.2822 114° Southeast 468 539 31,000  Level Cleveland Center
Sun 12:57:40 PM 41.6794 -83.1214 114° Southeast 468 539 31,000  Level Cleveland Center
Sun 12:58:40 PM 41.6267 -82.9639 114° Southeast 468 539 31,000  Level Cleveland Center
Sun 12:59:40 PM 41.5736 -82.8008 113° Southeast 468 539 31,000  Level Cleveland Center
Sun 01:00:40 PM 41.5261 -82.6633 115° Southeast 462 532 31,000 -300 Level Cleveland Center
Sun 01:01:40 PM 41.4728 -82.5036 114° Southeast 467 537 30,400 -800 Descending Cleveland Center
Sun 01:02:40 PM 41.4189 -82.3442 114° Southeast 460 529 29,400 -1,000 Descending Cleveland Center
Sun 01:03:40 PM 41.3669 -82.1906 114° Southeast 465 535 28,400 -1,050 Descending Cleveland Center
Sun 01:04:40 PM 41.3214 -82.0125 109° East 465 535 27,300 -950 Descending Cleveland Center
Sun 01:05:40 PM 41.2856 -81.8736 109° East 453 521 26,500 -900 Descending Cleveland Center
Sun 01:06:40 PM 41.2456 -81.7153 109° East 448 516 25,500 -1,000 Descending Cleveland Center
Sun 01:07:40 PM 41.2033 -81.5600 110° East 448 516 24,500 -1,150 Descending Cleveland Center
Sun 01:08:40 PM 41.1628 -81.4106 110° East 448 516 23,200 -2,050 Descending Cleveland Center
Sun 01:09:40 PM 41.1219 -81.2639 110° East 432 497 20,400 -2,600 Descending Cleveland Center
Sun 01:10:40 PM 41.0789 -81.1367 114° Southeast 400 460 18,000 -2,250 Descending Cleveland Center
Sun 01:11:40 PM 41.0314 -81.0125 117° Southeast 381 438 15,900 -2,200 Descending Cleveland Center
Sun 01:12:40 PM 40.9819 -80.8939 119° Southeast 375 432 13,600 -2,200 Descending Cleveland Center
Sun 01:13:40 PM 40.9364 -80.7839 119° Southeast 355 409 11,500 -1,800 Descending Cleveland Center
Sun 01:14:40 PM 40.8947 -80.6847 119° Southeast 335 386 10,000 -1,450 Descending Cleveland Center
Sun 01:15:40 PM 40.8383 -80.6022 132° Southeast 288 331 8,600 -1,550 Descending Cleveland Center
Sun 01:16:40 PM 40.7739 -80.5639 156° South 267 307 6,900 -1,300 Descending Cleveland Center
Sun 01:17:40 PM 40.7008 -80.5367 164° South 268 308 6,000 -600 Descending Cleveland Center
Sun 01:18:40 PM 40.6300 -80.5064 162° South 268 308 5,700 -800 Descending Cleveland Center
Sun 01:19:40 PM 40.5694 -80.4764 159° South 263 303 4,400 -1,300 Descending Cleveland Center

Login

Don't have an account? Register now (free) for customized features, flight alerts, and more!